Time;durP1;ratioP1;P1;durP2;ratioP2;P2;SDS_P1;SDS_P2;PMS_P1;PMS_P2;Temp;Humidity;BMP_temperature;BMP_pressure;BME280_temperature;BME280_humidity;BME280_pressure;Samples;Min_cycle;Max_cycle;Signal;HPM_P1;HPM_P2
2021/04/05 00:00:28;;;;;;;38.23;17.63;;;5.60;96.30;;;;;;4360379;32;20220;-66
2021/04/05 00:02:55;;;;;;;31.03;17.20;;;5.60;96.20;;;;;;4359941;32;20215;-64
2021/04/05 00:05:25;;;;;;;33.50;19.17;;;5.50;96.20;;;;;;4360606;32;20179;-64
2021/04/05 00:07:51;;;;;;;41.83;17.93;;;5.50;96.40;;;;;;4363687;32;20203;-65
2021/04/05 00:10:25;;;;;;;38.73;18.70;;;5.50;96.50;;;;;;4368933;32;20152;-64
2021/04/05 00:12:52;;;;;;;48.43;19.27;;;5.50;96.60;;;;;;4367662;32;20229;-62
2021/04/05 00:15:19;;;;;;;40.23;18.90;;;5.50;96.80;;;;;;4367782;32;20277;-63
2021/04/05 00:17:46;;;;;;;38.53;20.87;;;5.40;96.80;;;;;;4371672;32;20228;-63
2021/04/05 00:20:16;;;;;;;39.87;19.87;;;5.50;96.90;;;;;;4367534;32;20273;-63
2021/04/05 00:22:43;;;;;;;40.43;19.93;;;5.50;96.90;;;;;;4365986;32;20223;-66
2021/04/05 00:25:10;;;;;;;43.33;20.43;;;5.50;97.10;;;;;;4374628;32;20663;-63
2021/04/05 00:27:38;;;;;;;45.30;19.83;;;5.50;97.00;;;;;;4369663;32;20271;-65
2021/04/05 00:30:08;;;;;;;39.67;19.70;;;5.60;97.00;;;;;;4366124;32;20216;-65
2021/04/05 00:32:36;;;;;;;38.07;19.13;;;5.60;97.00;;;;;;4368617;32;21021;-65
2021/04/05 00:35:05;;;;;;;38.77;20.43;;;5.60;97.00;;;;;;4367445;32;20233;-63
2021/04/05 00:37:34;;;;;;;37.90;21.03;;;5.60;97.00;;;;;;4369864;32;20210;-64
2021/04/05 00:40:04;;;;;;;43.47;21.60;;;5.70;97.00;;;;;;4364852;32;20219;-63
2021/04/05 00:42:30;;;;;;;46.33;22.10;;;5.70;97.10;;;;;;4365252;32;20215;-63
2021/04/05 00:44:58;;;;;;;47.53;20.93;;;5.60;97.20;;;;;;4371273;32;20224;-63
2021/04/05 00:47:24;;;;;;;42.87;22.17;;;5.60;97.30;;;;;;4366223;32;20156;-63
2021/04/05 00:49:51;;;;;;;44.43;21.00;;;5.60;97.30;;;;;;4372896;32;20259;-63
2021/04/05 00:52:17;;;;;;;42.57;21.77;;;5.60;97.30;;;;;;4373521;32;20306;-63
2021/04/05 00:54:44;;;;;;;54.63;22.47;;;5.60;97.50;;;;;;4368708;32;20153;-63
2021/04/05 00:57:11;;;;;;;48.63;23.00;;;5.60;97.50;;;;;;4364989;32;20630;-63
2021/04/05 00:59:37;;;;;;;57.90;22.87;;;5.60;97.60;;;;;;4371542;32;20240;-63
2021/04/05 01:02:05;;;;;;;45.20;21.97;;;5.70;97.60;;;;;;4368022;32;20231;-63
2021/04/05 01:04:31;;;;;;;45.17;23.67;;;5.70;97.50;;;;;;4366787;32;20172;-63
2021/04/05 01:07:00;;;;;;;49.93;21.57;;;5.80;97.80;;;;;;4369138;32;20271;-62
2021/04/05 01:09:27;;;;;;;47.27;23.07;;;5.90;97.70;;;;;;4364387;32;20268;-62
2021/04/05 01:11:55;;;;;;;45.00;22.13;;;6.00;97.60;;;;;;4366162;32;20629;-63
2021/04/05 01:14:21;;;;;;;47.53;21.60;;;6.10;97.40;;;;;;4365471;32;20163;-64
2021/04/05 01:16:47;;;;;;;44.23;21.30;;;6.20;97.30;;;;;;4367484;32;20335;-64
2021/04/05 01:19:15;;;;;;;36.63;21.70;;;6.30;97.20;;;;;;4362756;32;20186;-64
2021/04/05 01:21:48;;;;;;;50.07;22.50;;;6.30;97.20;;;;;;4360867;32;20294;-63
2021/04/05 01:24:14;;;;;;;54.73;24.27;;;6.40;97.10;;;;;;4365057;32;20168;-63
2021/04/05 01:26:41;;;;;;;50.63;21.27;;;6.50;97.00;;;;;;4365905;32;20610;-62
2021/04/05 01:29:09;;;;;;;47.90;22.83;;;6.50;96.90;;;;;;4362182;32;20210;-62
2021/04/05 01:31:35;;;;;;;50.40;21.17;;;6.60;96.90;;;;;;4361513;32;20167;-63
2021/04/05 01:34:03;;;;;;;49.33;23.00;;;6.50;97.00;;;;;;4364268;32;20175;-63
2021/04/05 01:36:30;;;;;;;57.73;23.43;;;6.60;97.00;;;;;;4362205;32;20231;-64
2021/04/05 01:38:57;;;;;;;45.60;23.10;;;6.60;97.00;;;;;;4364360;32;20224;-64
2021/04/05 01:41:25;;;;;;;51.43;21.97;;;6.60;97.00;;;;;;4365443;32;20208;-64
2021/04/05 01:43:51;;;;;;;54.07;22.93;;;6.70;96.90;;;;;;4365981;32;20181;-65
2021/04/05 01:46:20;;;;;;;43.20;23.70;;;6.70;97.00;;;;;;4362321;32;20250;-65
2021/04/05 01:48:47;;;;;;;56.27;23.63;;;6.80;97.00;;;;;;4367953;32;20222;-63
2021/04/05 01:51:15;;;;;;;55.77;23.90;;;6.80;97.00;;;;;;4361870;32;20645;-63
2021/04/05 01:53:42;;;;;;;56.67;23.10;;;6.70;97.00;;;;;;4364175;32;20220;-62
2021/04/05 01:56:11;;;;;;;57.43;25.27;;;6.70;97.20;;;;;;4366262;32;20236;-62
2021/04/05 01:58:39;;;;;;;55.77;23.93;;;6.70;97.40;;;;;;4360526;32;20172;-63
2021/04/05 02:01:07;;;;;;;53.43;22.73;;;6.70;97.30;;;;;;4364396;32;20171;-64
2021/04/05 02:03:34;;;;;;;55.10;23.10;;;6.70;97.40;;;;;;4364179;32;20300;-64
2021/04/05 02:06:02;;;;;;;46.83;23.40;;;6.70;97.30;;;;;;4369371;32;20198;-64
2021/04/05 02:08:30;;;;;;;45.47;21.93;;;6.60;97.60;;;;;;4362485;32;20481;-64
2021/04/05 02:10:59;;;;;;;46.60;21.80;;;6.60;97.70;;;;;;4362727;32;20536;-64
2021/04/05 02:13:26;;;;;;;53.67;23.30;;;6.60;97.60;;;;;;4361740;32;20810;-63
2021/04/05 02:15:53;;;;;;;54.83;22.80;;;6.70;97.70;;;;;;4358708;32;20187;-63
2021/04/05 02:18:21;;;;;;;40.80;21.43;;;6.70;97.70;;;;;;4358565;32;20224;-63
2021/04/05 02:20:49;;;;;;;51.10;20.50;;;6.80;97.70;;;;;;4363646;32;20224;-63
2021/04/05 02:23:16;;;;;;;40.70;18.80;;;6.70;97.60;;;;;;4358779;32;20157;-64
2021/04/05 02:28:27;;;;;;;39.47;14.80;;;6.90;97.40;;;;;;4361930;32;20195;-63
2021/04/05 02:30:54;;;;;;;30.60;12.97;;;7.00;96.80;;;;;;4360308;32;20211;-63
2021/04/05 02:33:20;;;;;;;27.47;11.33;;;7.20;96.10;;;;;;4357954;32;20212;-63
2021/04/05 02:35:46;;;;;;;24.50;10.47;;;7.30;95.50;;;;;;4362477;32;20190;-63
2021/04/05 02:38:13;;;;;;;22.57;10.73;;;7.40;95.00;;;;;;4359775;32;20231;-63
2021/04/05 02:40:41;;;;;;;26.30;11.03;;;7.50;94.80;;;;;;4360369;32;20219;-63
2021/04/05 02:43:08;;;;;;;21.87;10.20;;;7.60;94.60;;;;;;4360402;32;20165;-63
2021/04/05 02:45:35;;;;;;;20.27;10.10;;;7.70;94.10;;;;;;4358956;32;20221;-63
2021/04/05 02:48:02;;;;;;;25.10;10.60;;;7.80;93.70;;;;;;4359164;32;20349;-63
2021/04/05 02:50:33;;;;;;;19.83;9.93;;;7.80;93.50;;;;;;4358975;32;20212;-63
2021/04/05 02:53:04;;;;;;;19.13;10.47;;;8.00;93.30;;;;;;4358861;32;20575;-66
2021/04/05 02:55:32;;;;;;;22.90;9.70;;;8.00;93.10;;;;;;4360443;32;20226;-66
2021/04/05 02:57:59;;;;;;;22.10;10.07;;;8.00;93.00;;;;;;4357514;32;20175;-63
2021/04/05 03:00:27;;;;;;;25.40;9.47;;;8.00;92.90;;;;;;4359359;32;20279;-64
2021/04/05 03:02:55;;;;;;;22.23;9.57;;;8.10;92.90;;;;;;4358062;32;20180;-66
2021/04/05 03:05:24;;;;;;;29.23;10.50;;;8.20;92.70;;;;;;4357700;32;20198;-66
2021/04/05 03:07:51;;;;;;;23.97;9.47;;;8.20;92.70;;;;;;4361678;32;20173;-65
2021/04/05 03:10:19;;;;;;;25.07;10.10;;;8.20;92.80;;;;;;4365759;32;20157;-65
2021/04/05 03:12:50;;;;;;;21.13;9.33;;;8.30;92.60;;;;;;4367947;32;20230;-64
2021/04/05 03:15:18;;;;;;;20.77;8.63;;;8.20;92.40;;;;;;4365658;32;20586;-65
2021/04/05 03:17:45;;;;;;;18.03;9.50;;;8.30;92.40;;;;;;4367581;32;20243;-64
2021/04/05 03:20:16;;;;;;;22.47;9.87;;;8.20;92.40;;;;;;4363920;32;20207;-66
2021/04/05 03:22:44;;;;;;;21.70;10.00;;;8.30;92.40;;;;;;4367313;32;20571;-63
2021/04/05 03:25:17;;;;;;;23.33;9.17;;;8.30;92.30;;;;;;4367158;32;20153;-63
2021/04/05 03:27:43;;;;;;;22.97;9.83;;;8.30;92.20;;;;;;4367032;32;20716;-66
2021/04/05 03:30:12;;;;;;;20.40;10.17;;;8.30;92.30;;;;;;4366822;32;20190;-64
2021/04/05 03:32:40;;;;;;;16.63;9.67;;;8.30;92.20;;;;;;4368761;32;20626;-67
2021/04/05 03:35:14;;;;;;;27.53;10.10;;;8.40;92.20;;;;;;4368799;32;20180;-65
2021/04/05 03:37:43;;;;;;;21.50;9.53;;;8.40;92.20;;;;;;4366786;32;20203;-64
2021/04/05 03:40:14;;;;;;;29.27;11.00;;;8.40;92.10;;;;;;4364101;32;20156;-66
2021/04/05 03:42:45;;;;;;;19.83;10.73;;;8.40;92.10;;;;;;4364162;32;20907;-65
2021/04/05 03:45:18;;;;;;;19.27;10.20;;;8.50;92.10;;;;;;4367083;32;20172;-65
2021/04/05 03:47:55;;;;;;;23.37;10.23;;;8.50;92.00;;;;;;4367448;32;20185;-66
2021/04/05 03:50:26;;;;;;;23.00;9.97;;;8.50;92.10;;;;;;4367194;32;20223;-64
2021/04/05 03:53:02;;;;;;;22.80;10.13;;;8.50;92.00;;;;;;4367190;32;20160;-65
2021/04/05 03:55:31;;;;;;;22.63;10.00;;;8.50;91.90;;;;;;4366326;32;20218;-62
2021/04/05 03:58:00;;;;;;;24.03;11.37;;;8.50;91.80;;;;;;4364974;32;20491;-66
2021/04/05 04:00:29;;;;;;;21.23;10.53;;;8.60;91.80;;;;;;4364200;32;20180;-63
2021/04/05 04:02:59;;;;;;;21.10;10.70;;;8.60;91.90;;;;;;4367532;32;20160;-66
2021/04/05 04:05:34;;;;;;;23.67;10.40;;;8.60;91.90;;;;;;4367040;32;20161;-66
2021/04/05 04:08:05;;;;;;;21.07;10.30;;;8.60;91.90;;;;;;4363186;32;20581;-64
2021/04/05 04:10:33;;;;;;;23.03;10.20;;;8.60;91.90;;;;;;4353452;32;20157;-65
2021/04/05 04:13:04;;;;;;;17.47;9.50;;;8.60;91.90;;;;;;4357949;32;20176;-66
2021/04/05 04:15:31;;;;;;;23.63;9.90;;;8.60;92.00;;;;;;4355118;32;20209;-64
2021/04/05 04:18:00;;;;;;;19.40;9.73;;;8.50;92.30;;;;;;4353370;32;20601;-65
2021/04/05 04:20:27;;;;;;;28.57;11.10;;;8.50;92.70;;;;;;4356628;32;20512;-62
2021/04/05 04:22:56;;;;;;;20.40;10.53;;;8.40;93.10;;;;;;4354295;32;20213;-62
2021/04/05 04:25:22;;;;;;;26.83;10.40;;;8.30;93.40;;;;;;4354243;32;20247;-62
2021/04/05 04:27:48;;;;;;;24.73;11.07;;;8.20;93.50;;;;;;4358305;32;20168;-65
2021/04/05 04:30:31;;;;;;;23.13;10.20;;;8.30;93.90;;;;;;4355145;32;20187;-64
2021/04/05 04:32:58;;;;;;;19.30;10.33;;;8.20;94.00;;;;;;4355271;32;20153;-62
2021/04/05 04:35:24;;;;;;;17.83;10.13;;;8.10;94.30;;;;;;4352591;32;20212;-63
2021/04/05 04:37:52;;;;;;;20.60;10.60;;;8.10;94.40;;;;;;4355439;32;20275;-63
2021/04/05 04:40:22;;;;;;;24.50;10.40;;;8.00;94.50;;;;;;4354431;32;20290;-65
2021/04/05 04:42:50;;;;;;;23.90;10.43;;;8.00;94.50;;;;;;4356156;33;20216;-65
2021/04/05 04:45:17;;;;;;;23.10;9.83;;;8.00;94.50;;;;;;4353870;32;20258;-61
2021/04/05 04:47:44;;;;;;;18.33;10.70;;;8.00;94.40;;;;;;4354702;32;20213;-65
2021/04/05 04:50:14;;;;;;;19.30;10.17;;;8.00;94.40;;;;;;4354553;32;20191;-63
2021/04/05 04:52:40;;;;;;;27.67;10.13;;;8.10;94.50;;;;;;4355311;32;20160;-62
2021/04/05 04:55:10;;;;;;;18.07;9.70;;;8.10;94.10;;;;;;4355982;32;20220;-63
2021/04/05 04:57:36;;;;;;;24.97;10.53;;;8.10;94.10;;;;;;4356000;32;20272;-63
2021/04/05 05:00:03;;;;;;;18.93;9.87;;;8.20;93.90;;;;;;4355841;32;20181;-64
2021/04/05 05:02:31;;;;;;;20.53;8.57;;;8.20;93.70;;;;;;4354375;32;20589;-62
2021/04/05 05:04:58;;;;;;;26.97;10.50;;;8.30;93.30;;;;;;4354269;32;20228;-63
2021/04/05 05:07:26;;;;;;;25.80;8.90;;;8.40;93.10;;;;;;4356162;32;20172;-64
2021/04/05 05:09:52;;;;;;;23.67;9.57;;;8.40;93.00;;;;;;4361600;32;20187;-64
2021/04/05 05:12:20;;;;;;;20.80;9.97;;;8.50;92.80;;;;;;4364883;32;20525;-63
2021/04/05 05:14:48;;;;;;;11.80;4.93;;;8.50;93.20;;;;;;4363240;32;20496;-62
2021/04/05 05:17:16;;;;;;;6.90;3.30;;;8.10;93.10;;;;;;4365846;32;20239;-63
2021/04/05 05:19:44;;;;;;;9.20;2.27;;;7.50;93.70;;;;;;4361891;32;20224;-63
2021/04/05 05:22:14;;;;;;;7.40;1.70;;;7.00;94.50;;;;;;4362865;32;20180;-63
2021/04/05 05:24:44;;;;;;;7.30;2.13;;;6.40;94.90;;;;;;4362961;32;20275;-63
2021/04/05 05:27:11;;;;;;;12.50;2.23;;;6.10;95.90;;;;;;4364977;32;20161;-62
2021/04/05 05:29:40;;;;;;;10.80;2.00;;;5.90;96.20;;;;;;4360744;32;20227;-63
2021/04/05 05:32:07;;;;;;;10.97;2.10;;;5.70;96.60;;;;;;4366176;32;20514;-62
2021/04/05 05:34:34;;;;;;;6.60;1.87;;;5.60;96.70;;;;;;4361194;32;20192;-63
2021/04/05 05:37:04;;;;;;;11.27;2.53;;;5.60;97.00;;;;;;4364234;32;20345;-65
2021/04/05 05:39:30;;;;;;;13.67;3.70;;;5.50;96.90;;;;;;4367310;32;20184;-65
2021/04/05 05:42:05;;;;;;;9.77;2.80;;;5.50;97.00;;;;;;4362079;32;20232;-63
2021/04/05 05:44:46;;;;;;;10.10;2.37;;;5.50;97.10;;;;;;4363883;32;20241;-63
2021/04/05 05:47:25;;;;;;;17.23;3.03;;;5.50;96.50;;;;;;4362718;32;20285;-61
2021/04/05 05:50:04;;;;;;;9.33;3.23;;;5.50;96.70;;;;;;4365928;32;20251;-63
2021/04/05 05:52:40;;;;;;;14.37;3.60;;;5.60;96.70;;;;;;4369382;32;20181;-67
2021/04/05 05:55:35;;;;;;;14.97;2.80;;;5.50;96.80;;;;;;4358917;32;20208;-63
2021/04/05 05:58:11;;;;;;;14.33;3.03;;;5.50;97.10;;;;;;4362873;32;20598;-62
2021/04/05 06:00:44;;;;;;;11.63;3.27;;;5.50;97.00;;;;;;4366177;32;21017;-63
2021/04/05 06:03:35;;;;;;;8.50;2.53;;;5.50;97.10;;;;;;4365129;32;20291;-63
2021/04/05 06:06:16;;;;;;;10.97;2.40;;;5.50;97.20;;;;;;4369170;32;20713;-61
2021/04/05 06:08:53;;;;;;;11.70;2.20;;;5.50;97.00;;;;;;4364607;32;20198;-63
2021/04/05 06:11:27;;;;;;;8.83;2.20;;;5.60;97.00;;;;;;4362241;32;20187;-61
2021/04/05 06:14:00;;;;;;;8.33;2.07;;;5.50;96.80;;;;;;4365745;32;20577;-62
2021/04/05 06:16:47;;;;;;;8.40;2.23;;;5.50;97.00;;;;;;4362827;32;20585;-64
2021/04/05 06:19:24;;;;;;;12.23;2.30;;;5.50;96.70;;;;;;4363391;32;20263;-62
2021/04/05 06:21:58;;;;;;;7.17;2.30;;;5.50;96.60;;;;;;4366734;32;20585;-63
2021/04/05 06:24:33;;;;;;;14.20;2.57;;;5.50;96.50;;;;;;4367196;32;20600;-65
2021/04/05 06:27:05;;;;;;;10.50;2.13;;;5.40;96.60;;;;;;4364790;32;20220;-62
2021/04/05 06:29:47;;;;;;;11.77;2.40;;;5.50;96.70;;;;;;4364046;32;20196;-62
2021/04/05 06:32:23;;;;;;;8.03;2.83;;;5.50;96.50;;;;;;4365270;32;20662;-66
2021/04/05 06:35:18;;;;;;;12.87;2.20;;;5.50;96.50;;;;;;4363475;32;20267;-62
2021/04/05 06:37:47;;;;;;;10.60;2.47;;;5.60;96.40;;;;;;4365442;32;20593;-62
2021/04/05 06:40:16;;;;;;;9.27;2.13;;;5.60;96.40;;;;;;4368148;32;20202;-63
2021/04/05 06:43:14;;;;;;;10.57;1.80;;;5.40;96.80;;;;;;4366182;32;20238;-63
2021/04/05 06:45:49;;;;;;;2.90;0.90;;;5.10;97.50;;;;;;4307282;33;20606;-62
2021/04/05 06:49:08;;;;;;;6.33;1.33;;;4.80;97.50;;;;;;4307342;33;20799;-64
2021/04/05 06:51:56;;;;;;;6.73;1.70;;;4.50;97.10;;;;;;4309777;33;20166;-64
2021/04/05 06:55:08;;;;;;;10.20;2.57;;;4.40;97.60;;;;;;4308468;33;20701;-67
2021/04/05 06:57:45;;;;;;;10.97;2.20;;;4.50;97.50;;;;;;4263079;33;20171;-62
2021/04/05 07:00:15;;;;;;;11.33;2.00;;;4.50;97.60;;;;;;4266711;33;20254;-66
2021/04/05 07:03:11;;;;;;;14.87;2.47;;;4.40;97.10;;;;;;4263248;33;20256;-62
2021/04/05 07:05:57;;;;;;;14.67;2.60;;;4.50;96.90;;;;;;4265940;33;20218;-62
2021/04/05 07:08:31;;;;;;;10.90;2.57;;;4.50;96.70;;;;;;4264047;33;20225;-63
2021/04/05 07:11:10;;;;;;;17.03;2.60;;;4.50;95.80;;;;;;4237645;33;1535644;-64
2021/04/05 07:13:52;;;;;;;14.70;2.90;;;4.40;95.90;;;;;;4280711;33;20229;-67
2021/04/05 07:16:41;;;;;;;11.77;2.93;;;4.50;95.90;;;;;;4278988;33;20253;-63
2021/04/05 07:19:19;;;;;;;18.90;3.80;;;4.50;95.70;;;;;;4287519;33;20418;-61
2021/04/05 07:21:59;;;;;;;16.60;3.87;;;4.40;95.10;;;;;;4286647;33;20241;-61
2021/04/05 07:24:34;;;;;;;19.77;3.90;;;4.30;95.30;;;;;;4296097;33;20308;-63
2021/04/05 07:27:05;;;;;;;20.43;3.80;;;4.10;95.70;;;;;;4298946;33;20179;-62
2021/04/05 07:29:40;;;;;;;31.23;4.23;;;4.00;95.20;;;;;;4303707;33;20193;-62
2021/04/05 07:32:23;;;;;;;18.60;3.47;;;3.90;95.10;;;;;;4299211;33;20157;-66
2021/04/05 07:35:01;;;;;;;18.43;3.20;;;3.90;94.50;;;;;;4337333;32;20235;-63
2021/04/05 07:37:43;;;;;;;14.60;3.87;;;3.90;94.90;;;;;;4365583;32;20477;-60
2021/04/05 07:40:21;;;;;;;15.80;2.97;;;3.90;94.30;;;;;;4361063;32;20153;-60
2021/04/05 07:42:52;;;;;;;14.77;3.77;;;4.00;95.10;;;;;;4356417;32;20427;-63
2021/04/05 07:45:25;;;;;;;15.90;3.17;;;4.10;94.20;;;;;;4357550;32;20366;-62
2021/04/05 07:48:00;;;;;;;17.40;3.60;;;4.20;93.70;;;;;;4358905;32;20195;-64
2021/04/05 07:50:33;;;;;;;21.07;4.00;;;4.30;93.40;;;;;;4355188;32;20227;-62
2021/04/05 07:53:10;;;;;;;19.67;3.33;;;4.20;93.10;;;;;;4356883;32;20680;-61
2021/04/05 07:55:40;;;;;;;18.57;3.33;;;4.20;93.50;;;;;;4358834;32;20180;-65
2021/04/05 07:58:14;;;;;;;18.90;3.67;;;4.20;92.70;;;;;;4356991;32;20166;-63
2021/04/05 08:00:47;;;;;;;17.40;3.47;;;4.30;93.00;;;;;;4358414;32;20167;-63
2021/04/05 08:03:29;;;;;;;21.70;4.17;;;4.60;93.00;;;;;;4358891;32;20287;-63
2021/04/05 08:06:00;;;;;;;19.13;3.70;;;4.70;92.30;;;;;;4358044;32;20224;-64
2021/04/05 08:08:47;;;;;;;17.53;2.90;;;4.90;91.40;;;;;;4356532;32;20208;-61
2021/04/05 08:11:44;;;;;;;14.80;3.90;;;4.90;91.00;;;;;;4366450;32;20577;-62
2021/04/05 08:14:21;;;;;;;20.03;3.17;;;4.80;90.70;;;;;;4366005;32;20239;-63
2021/04/05 08:17:00;;;;;;;15.27;3.23;;;4.80;90.60;;;;;;4367119;32;20153;-62
2021/04/05 08:19:46;;;;;;;10.70;3.27;;;4.80;89.50;;;;;;4364864;32;20156;-67
2021/04/05 08:22:22;;;;;;;12.87;3.20;;;4.70;88.50;;;;;;4368761;32;20216;-64
2021/04/05 08:25:02;;;;;;;17.17;2.87;;;4.60;89.60;;;;;;4364938;32;20149;-63
2021/04/05 08:27:37;;;;;;;12.47;2.70;;;4.70;90.40;;;;;;4365764;32;20156;-64
2021/04/05 08:30:07;;;;;;;9.90;2.40;;;5.00;86.30;;;;;;4365705;32;20160;-66
2021/04/05 08:32:42;;;;;;;14.10;2.40;;;5.50;82.90;;;;;;4365147;32;20324;-66
2021/04/05 08:35:27;;;;;;;11.03;2.23;;;5.60;81.80;;;;;;4362421;32;20219;-64
2021/04/05 08:38:05;;;;;;;8.97;2.00;;;5.50;80.20;;;;;;4364297;32;20187;-64
2021/04/05 08:40:39;;;;;;;8.40;1.97;;;5.40;81.60;;;;;;4365469;32;20287;-63
2021/04/05 08:43:11;;;;;;;5.73;1.70;;;6.00;80.80;;;;;;4363825;32;20165;-62
2021/04/05 08:45:44;;;;;;;5.30;1.40;;;5.80;76.30;;;;;;4363532;32;20203;-62
2021/04/05 08:48:14;;;;;;;6.03;1.37;;;5.90;78.30;;;;;;4366028;32;20223;-63
2021/04/05 08:50:42;;;;;;;6.17;1.80;;;5.90;77.60;;;;;;4363866;32;20281;-62
2021/04/05 08:53:10;;;;;;;6.47;1.23;;;5.80;78.40;;;;;;4366161;32;20219;-63
2021/04/05 08:55:40;;;;;;;7.17;1.30;;;5.90;78.70;;;;;;4365421;32;20233;-65
2021/04/05 08:58:09;;;;;;;3.17;1.07;;;6.00;78.60;;;;;;4364895;32;20149;-61
2021/04/05 09:00:38;;;;;;;13.87;2.40;;;5.80;80.70;;;;;;4363429;32;20258;-63
2021/04/05 09:03:08;;;;;;;8.53;1.67;;;5.30;82.20;;;;;;4366914;32;20303;-63
2021/04/05 09:05:40;;;;;;;3.47;0.97;;;5.10;84.50;;;;;;4366288;32;20440;-61
2021/04/05 09:08:08;;;;;;;7.20;1.67;;;4.50;89.30;;;;;;4367132;32;20595;-63
2021/04/05 09:10:48;;;;;;;4.57;0.83;;;4.00;91.10;;;;;;4357193;32;20319;-62
2021/04/05 09:13:21;;;;;;;4.97;0.80;;;4.00;91.00;;;;;;4353747;32;20483;-65
2021/04/05 09:16:14;;;;;;;5.80;1.20;;;4.20;91.40;;;;;;4354626;32;20594;-67
2021/04/05 09:19:04;;;;;;;4.40;0.90;;;4.00;92.20;;;;;;4355386;32;20247;-64
2021/04/05 09:21:45;;;;;;;7.33;1.23;;;3.80;91.80;;;;;;4359451;32;20215;-65
2021/04/05 09:24:29;;;;;;;4.53;1.20;;;4.20;91.50;;;;;;4356122;32;20230;-65
2021/04/05 09:27:14;;;;;;;6.57;1.40;;;4.40;90.90;;;;;;4357520;32;20196;-63
2021/04/05 09:29:45;;;;;;;2.97;1.10;;;4.90;90.00;;;;;;4353238;32;20172;-61
2021/04/05 09:32:45;;;;;;;2.57;1.20;;;4.60;88.80;;;;;;4354838;32;20198;-63
2021/04/05 09:35:42;;;;;;;5.83;1.53;;;5.30;87.90;;;;;;4352526;32;20268;-65
2021/04/05 09:38:35;;;;;;;6.07;1.60;;;5.30;82.00;;;;;;4354397;33;20168;-63
2021/04/05 09:41:22;;;;;;;10.07;2.37;;;5.30;82.30;;;;;;4355068;32;20166;-63
2021/04/05 09:44:44;;;;;;;8.03;2.23;;;6.30;80.70;;;;;;4356233;32;20224;-68
2021/04/05 09:47:31;;;;;;;5.80;1.73;;;6.00;77.50;;;;;;4295160;33;20154;-63
2021/04/05 09:50:11;;;;;;;8.37;2.03;;;5.90;75.90;;;;;;4293669;33;20202;-66
2021/04/05 09:53:13;;;;;;;9.10;3.00;;;6.20;77.70;;;;;;4292196;33;20255;-63
2021/04/05 09:55:44;;;;;;;11.03;3.20;;;6.60;72.10;;;;;;4296171;33;20253;-65
2021/04/05 09:58:17;;;;;;;14.07;2.47;;;7.30;73.50;;;;;;4293710;33;20304;-62
2021/04/05 10:00:50;;;;;;;9.33;2.30;;;6.70;70.40;;;;;;4289962;33;20251;-61
2021/04/05 10:03:18;;;;;;;11.00;2.17;;;5.70;73.00;;;;;;4291738;33;20386;-64
2021/04/05 10:05:47;;;;;;;18.43;3.63;;;5.90;74.60;;;;;;4294017;33;20178;-65
2021/04/05 10:08:15;;;;;;;17.50;11.07;;;6.20;73.70;;;;;;4293461;33;20233;-66
2021/04/05 10:10:44;;;;;;;11.63;3.27;;;5.70;72.70;;;;;;4304655;33;20337;-62
2021/04/05 10:13:20;;;;;;;13.37;2.40;;;5.80;75.60;;;;;;4306873;33;20296;-62
2021/04/05 10:15:50;;;;;;;11.60;2.83;;;5.70;74.20;;;;;;4306351;33;20160;-63
2021/04/05 10:18:17;;;;;;;8.33;1.60;;;3.50;90.70;;;;;;4336665;32;20546;-64
2021/04/05 10:20:47;;;;;;;11.03;1.70;;;2.90;92.50;;;;;;4349264;32;20611;-63
2021/04/05 10:23:19;;;;;;;7.83;2.20;;;3.20;95.20;;;;;;4350113;32;20372;-67
2021/04/05 10:25:51;;;;;;;4.70;1.67;;;3.70;90.20;;;;;;4347065;32;20187;-64
2021/04/05 10:28:18;;;;;;;6.80;1.63;;;4.10;86.90;;;;;;4352708;32;20460;-62
2021/04/05 10:30:55;;;;;;;7.90;2.10;;;4.30;83.50;;;;;;4354216;32;20191;-63
2021/04/05 10:33:28;;;;;;;9.33;2.60;;;4.70;83.00;;;;;;4348806;32;20352;-64
2021/04/05 10:35:57;;;;;;;12.77;3.80;;;5.00;81.40;;;;;;4349683;32;20283;-63
2021/04/05 10:38:25;;;;;;;9.63;2.30;;;5.10;77.00;;;;;;4351476;32;20227;-65
2021/04/05 10:40:53;;;;;;;8.40;2.30;;;5.30;76.90;;;;;;4351694;32;20205;-62
2021/04/05 10:43:24;;;;;;;7.23;2.40;;;5.90;79.20;;;;;;4350487;32;20295;-62
2021/04/05 10:45:57;;;;;;;10.50;2.43;;;6.20;70.40;;;;;;4351070;32;20208;-63
2021/04/05 10:48:37;;;;;;;9.03;1.90;;;6.50;69.70;;;;;;4349727;32;20173;-65
2021/04/05 10:51:07;;;;;;;12.73;2.10;;;6.50;68.50;;;;;;4353537;32;20473;-60
2021/04/05 10:53:39;;;;;;;9.67;1.57;;;6.60;62.40;;;;;;4349471;32;20179;-62
2021/04/05 10:56:08;;;;;;;9.67;1.93;;;6.80;61.80;;;;;;4349379;32;20156;-61
2021/04/05 10:58:42;;;;;;;16.83;2.90;;;6.90;60.90;;;;;;4346544;32;20220;-63
2021/04/05 11:01:10;;;;;;;7.43;1.70;;;6.20;62.60;;;;;;4349295;32;20603;-62
2021/04/05 11:03:42;;;;;;;7.13;1.63;;;5.50;64.60;;;;;;4346875;32;20233;-66
2021/04/05 11:06:12;;;;;;;9.27;1.80;;;4.30;82.70;;;;;;4351415;32;20239;-62
2021/04/05 11:08:39;;;;;;;8.57;2.17;;;4.00;88.00;;;;;;4349320;32;20219;-61
2021/04/05 11:11:09;;;;;;;11.50;2.13;;;4.40;82.20;;;;;;4365562;32;20239;-65
2021/04/05 11:13:37;;;;;;;15.57;4.37;;;4.70;75.20;;;;;;4360624;32;20676;-64
2021/04/05 11:16:11;;;;;;;11.73;1.70;;;4.70;71.00;;;;;;4367733;32;20175;-62
2021/04/05 11:18:48;;;;;;;8.93;1.93;;;4.90;71.30;;;;;;4364701;32;20585;-64
2021/04/05 11:21:16;;;;;;;7.90;1.87;;;5.20;69.60;;;;;;4364784;32;20149;-62
2021/04/05 11:23:43;;;;;;;6.43;1.73;;;5.50;63.90;;;;;;4365038;32;20206;-61
2021/04/05 11:26:10;;;;;;;4.73;1.10;;;5.50;61.90;;;;;;4363253;32;20175;-63
2021/04/05 11:28:40;;;;;;;8.53;1.90;;;5.80;60.20;;;;;;4366943;32;20166;-63
2021/04/05 11:31:12;;;;;;;9.47;1.70;;;6.10;57.40;;;;;;4366183;32;20210;-63
2021/04/05 11:33:47;;;;;;;7.20;1.53;;;6.50;56.20;;;;;;4367116;32;20172;-66
2021/04/05 11:36:14;;;;;;;8.13;1.73;;;6.60;58.10;;;;;;4366676;32;20170;-62
2021/04/05 11:38:45;;;;;;;13.00;1.83;;;6.30;61.00;;;;;;4368105;32;20211;-62
2021/04/05 11:41:13;;;;;;;6.17;1.60;;;6.60;62.90;;;;;;4361108;32;20164;-64
2021/04/05 11:43:42;;;;;;;10.70;1.90;;;6.40;68.00;;;;;;4368862;32;20219;-64
2021/04/05 11:46:12;;;;;;;9.47;1.83;;;6.30;68.10;;;;;;4367043;32;20314;-66
2021/04/05 11:48:39;;;;;;;9.27;2.37;;;6.20;70.00;;;;;;4367839;32;20204;-63
2021/04/05 11:51:06;;;;;;;6.73;1.47;;;6.60;69.60;;;;;;4364857;32;20224;-61
2021/04/05 11:53:42;;;;;;;8.97;1.97;;;6.90;65.60;;;;;;4366022;32;20184;-60
2021/04/05 11:56:21;;;;;;;10.00;1.47;;;6.70;65.90;;;;;;4365363;32;20209;-63
2021/04/05 11:58:59;;;;;;;4.97;1.13;;;6.10;63.80;;;;;;4365003;32;20515;-62
2021/04/05 12:01:31;;;;;;;5.73;1.23;;;5.20;68.30;;;;;;4364080;32;20191;-61
2021/04/05 12:04:02;;;;;;;8.80;1.10;;;5.20;72.10;;;;;;4366992;32;20240;-61
2021/04/05 12:06:35;;;;;;;5.10;1.07;;;5.30;70.80;;;;;;4363100;32;20225;-60
2021/04/05 12:09:07;;;;;;;4.43;1.57;;;5.40;69.60;;;;;;4367560;32;20396;-63
2021/04/05 12:11:42;;;;;;;10.47;1.67;;;5.50;70.20;;;;;;4358058;32;20170;-60
2021/04/05 12:14:12;;;;;;;3.70;1.60;;;4.40;85.10;;;;;;4358362;32;20228;-63
2021/04/05 12:16:46;;;;;;;8.17;1.57;;;4.10;84.20;;;;;;4358728;32;20236;-63
2021/04/05 12:19:13;;;;;;;4.97;1.10;;;3.80;87.30;;;;;;4357450;32;20242;-63
2021/04/05 12:21:50;;;;;;;8.50;1.60;;;3.10;94.30;;;;;;4359217;32;20220;-63
2021/04/05 12:24:26;;;;;;;5.73;1.17;;;3.50;95.20;;;;;;4357145;32;20206;-61
2021/04/05 12:26:56;;;;;;;5.33;1.40;;;3.60;94.40;;;;;;4363011;32;20175;-63
2021/04/05 12:29:25;;;;;;;8.00;1.37;;;3.80;91.40;;;;;;4358286;32;20216;-61
2021/04/05 12:31:59;;;;;;;6.30;1.53;;;4.00;91.00;;;;;;4356913;32;20711;-63
2021/04/05 12:34:30;;;;;;;5.67;1.60;;;4.20;89.10;;;;;;4360481;32;20148;-66
2021/04/05 12:36:58;;;;;;;5.80;1.67;;;4.60;86.00;;;;;;4362328;32;20152;-66
2021/04/05 12:39:29;;;;;;;5.27;1.30;;;5.20;86.20;;;;;;4359986;32;20555;-62
2021/04/05 12:41:57;;;;;;;12.93;4.07;;;5.80;83.20;;;;;;4358777;32;20628;-62
2021/04/05 12:44:28;;;;;;;6.77;1.63;;;6.20;78.60;;;;;;4359265;32;20202;-63
2021/04/05 12:47:02;;;;;;;7.40;1.53;;;6.30;75.60;;;;;;4359108;32;20240;-62
2021/04/05 12:49:30;;;;;;;8.43;1.63;;;6.30;70.20;;;;;;4359527;32;20485;-62
2021/04/05 12:52:00;;;;;;;5.30;1.40;;;6.10;70.30;;;;;;4359794;32;20160;-67
2021/04/05 12:54:29;;;;;;;9.00;1.60;;;5.70;71.60;;;;;;4358596;32;20173;-65
2021/04/05 12:56:59;;;;;;;11.77;1.80;;;5.60;72.20;;;;;;4359675;32;20183;-64
2021/04/05 12:59:27;;;;;;;10.60;1.70;;;5.40;71.50;;;;;;4359534;32;20507;-64
2021/04/05 13:01:55;;;;;;;4.67;1.40;;;5.40;74.80;;;;;;4365014;32;20256;-62
2021/04/05 13:04:24;;;;;;;12.23;1.80;;;5.70;75.60;;;;;;4360398;32;20154;-63
2021/04/05 13:06:56;;;;;;;5.77;1.40;;;6.00;70.80;;;;;;4362192;32;20215;-64
2021/04/05 13:09:26;;;;;;;8.13;1.53;;;5.70;69.80;;;;;;4358852;32;20669;-61
2021/04/05 13:11:59;;;;;;;17.33;5.30;;;5.70;68.40;;;;;;4363488;32;20553;-66
2021/04/05 13:14:29;;;;;;;6.20;1.20;;;5.80;66.80;;;;;;4367852;32;20151;-62